sensor_id;sensor_type;location;lat;lon;timestamp;pressure;altitude;pressure_sealevel;temperature;humidity
71043;BME280;58696;52.134;5.500;2023-02-08T00:01:26;104127.53;;;-2.47;87.17
71043;BME280;58696;52.134;5.500;2023-02-08T00:03:53;104121.69;;;-2.49;87.29
71043;BME280;58696;52.134;5.500;2023-02-08T00:06:20;104128.41;;;-2.51;87.27
71043;BME280;58696;52.134;5.500;2023-02-08T00:08:46;104127.56;;;-2.49;87.60
71043;BME280;58696;52.134;5.500;2023-02-08T00:11:13;104114.94;;;-2.46;87.74
71043;BME280;58696;52.134;5.500;2023-02-08T00:13:42;104113.28;;;-2.47;87.61
71043;BME280;58696;52.134;5.500;2023-02-08T00:16:16;104114.16;;;-2.49;87.67
71043;BME280;58696;52.134;5.500;2023-02-08T00:18:44;104113.34;;;-2.56;87.62
71043;BME280;58696;52.134;5.500;2023-02-08T00:21:14;104120.91;;;-2.56;87.71
71043;BME280;58696;52.134;5.500;2023-02-08T00:23:41;104115.91;;;-2.59;87.94
71043;BME280;58696;52.134;5.500;2023-02-08T00:26:09;104122.66;;;-2.59;88.17
71043;BME280;58696;52.134;5.500;2023-02-08T00:28:36;104123.47;;;-2.59;88.05
71043;BME280;58696;52.134;5.500;2023-02-08T00:31:06;104116.72;;;-2.55;88.27
71043;BME280;58696;52.134;5.500;2023-02-08T00:33:32;104108.34;;;-2.57;88.18
71043;BME280;58696;52.134;5.500;2023-02-08T00:36:01;104106.69;;;-2.58;88.24
71043;BME280;58696;52.134;5.500;2023-02-08T00:38:31;104107.56;;;-2.64;88.01
71043;BME280;58696;52.134;5.500;2023-02-08T00:40:58;104089.94;;;-2.62;87.94
71043;BME280;58696;52.134;5.500;2023-02-08T00:43:30;104095.84;;;-2.67;87.98
71043;BME280;58696;52.134;5.500;2023-02-08T00:45:58;104081.59;;;-2.68;87.89
71043;BME280;58696;52.134;5.500;2023-02-08T00:48:26;104088.41;;;-2.76;87.85
71043;BME280;58696;52.134;5.500;2023-02-08T00:53:27;104085.13;;;-2.82;87.85
71043;BME280;58696;52.134;5.500;2023-02-08T00:55:55;104085.97;;;-2.85;87.81
71043;BME280;58696;52.134;5.500;2023-02-08T00:58:22;104093.56;;;-2.88;87.75
71043;BME280;58696;52.134;5.500;2023-02-08T01:00:52;104095.22;;;-2.90;87.81
71043;BME280;58696;52.134;5.500;2023-02-08T01:03:22;104096.97;;;-2.94;87.84
71043;BME280;58696;52.134;5.500;2023-02-08T01:05:49;104097.00;;;-2.98;88.10
71043;BME280;58696;52.134;5.500;2023-02-08T01:08:16;104092.75;;;-2.92;88.19
71043;BME280;58696;52.134;5.500;2023-02-08T01:10:45;104092.72;;;-2.90;88.07
71043;BME280;58696;52.134;5.500;2023-02-08T01:13:12;104095.25;;;-2.92;88.26
71043;BME280;58696;52.134;5.500;2023-02-08T01:15:41;104096.13;;;-2.93;88.00
71043;BME280;58696;52.134;5.500;2023-02-08T01:18:10;104096.13;;;-2.96;88.08
71043;BME280;58696;52.134;5.500;2023-02-08T01:20:39;104098.69;;;-2.99;88.12
71043;BME280;58696;52.134;5.500;2023-02-08T01:23:06;104104.59;;;-3.04;87.90
71043;BME280;58696;52.134;5.500;2023-02-08T01:25:35;104111.28;;;-3.05;87.97
71043;BME280;58696;52.134;5.500;2023-02-08T01:28:03;104107.94;;;-3.05;88.18
71043;BME280;58696;52.134;5.500;2023-02-08T01:30:32;104107.13;;;-3.04;88.31
71043;BME280;58696;52.134;5.500;2023-02-08T01:32:59;104115.56;;;-3.10;88.60
71043;BME280;58696;52.134;5.500;2023-02-08T01:35:27;104110.50;;;-3.11;88.76
71043;BME280;58696;52.134;5.500;2023-02-08T01:37:53;104108.81;;;-3.08;89.00
71043;BME280;58696;52.134;5.500;2023-02-08T01:40:21;104105.44;;;-3.05;88.74
71043;BME280;58696;52.134;5.500;2023-02-08T01:42:48;104111.28;;;-3.02;88.76
71043;BME280;58696;52.134;5.500;2023-02-08T01:45:18;104098.72;;;-3.05;88.52
71043;BME280;58696;52.134;5.500;2023-02-08T01:47:57;104097.09;;;-3.09;88.86
71043;BME280;58696;52.134;5.500;2023-02-08T01:50:34;104097.13;;;-3.17;88.58
71043;BME280;58696;52.134;5.500;2023-02-08T01:53:05;104092.19;;;-3.24;88.34
71043;BME280;58696;52.134;5.500;2023-02-08T01:55:36;104091.34;;;-3.28;88.54
71043;BME280;58696;52.134;5.500;2023-02-08T01:58:08;104089.72;;;-3.30;88.32
71043;BME280;58696;52.134;5.500;2023-02-08T02:00:38;104086.34;;;-3.29;88.27
71043;BME280;58696;52.134;5.500;2023-02-08T02:03:08;104083.84;;;-3.31;88.28
71043;BME280;58696;52.134;5.500;2023-02-08T02:05:40;104083.03;;;-3.34;88.24
71043;BME280;58696;52.134;5.500;2023-02-08T02:08:08;104083.91;;;-3.38;88.21
71043;BME280;58696;52.134;5.500;2023-02-08T02:10:37;104083.94;;;-3.41;88.35
71043;BME280;58696;52.134;5.500;2023-02-08T02:13:17;104084.72;;;-3.36;88.43
71043;BME280;58696;52.134;5.500;2023-02-08T02:15:48;104088.06;;;-3.34;88.54
71043;BME280;58696;52.134;5.500;2023-02-08T02:18:22;104080.53;;;-3.36;88.64
71043;BME280;58696;52.134;5.500;2023-02-08T02:30:01;104075.63;;;-3.56;88.40
71043;BME280;58696;52.134;5.500;2023-02-08T02:35:31;104080.69;;;-3.57;88.70
71043;BME280;58696;52.134;5.500;2023-02-08T02:38:55;104059.72;;;-3.56;88.99
71043;BME280;58696;52.134;5.500;2023-02-08T02:41:18;104058.84;;;-3.51;88.88
71043;BME280;58696;52.134;5.500;2023-02-08T02:44:22;104069.72;;;-3.49;88.71
71043;BME280;58696;52.134;5.500;2023-02-08T02:47:05;104065.53;;;-3.47;89.10
71043;BME280;58696;52.134;5.500;2023-02-08T02:52:18;104065.53;;;-3.50;89.12
71043;BME280;58696;52.134;5.500;2023-02-08T02:54:50;104068.97;;;-3.60;88.82
71043;BME280;58696;52.134;5.500;2023-02-08T02:57:27;104065.59;;;-3.56;88.75
71043;BME280;58696;52.134;5.500;2023-02-08T03:00:01;104063.88;;;-3.51;88.88
71043;BME280;58696;52.134;5.500;2023-02-08T03:02:31;104069.75;;;-3.52;88.71
71043;BME280;58696;52.134;5.500;2023-02-08T03:04:58;104063.09;;;-3.57;88.75
71043;BME280;58696;52.134;5.500;2023-02-08T03:10:28;104054.75;;;-3.62;88.59
71043;BME280;58696;52.134;5.500;2023-02-08T03:13:24;104054.72;;;-3.59;88.69
71043;BME280;58696;52.134;5.500;2023-02-08T03:31:56;104043.88;;;-3.66;88.50
71043;BME280;58696;52.134;5.500;2023-02-08T03:34:38;104045.56;;;-3.68;88.60
71043;BME280;58696;52.134;5.500;2023-02-08T03:37:13;104045.56;;;-3.71;88.57
71043;BME280;58696;52.134;5.500;2023-02-08T03:39:42;104040.59;;;-3.74;88.75
71043;BME280;58696;52.134;5.500;2023-02-08T03:42:17;104043.94;;;-3.75;88.75
71043;BME280;58696;52.134;5.500;2023-02-08T03:44:59;104043.09;;;-3.77;88.54
71043;BME280;58696;52.134;5.500;2023-02-08T03:47:29;104048.97;;;-3.78;88.53
71043;BME280;58696;52.134;5.500;2023-02-08T03:50:03;104051.53;;;-3.87;88.44
71043;BME280;58696;52.134;5.500;2023-02-08T03:52:34;104053.25;;;-3.92;88.53
71043;BME280;58696;52.134;5.500;2023-02-08T03:55:48;104061.66;;;-3.98;88.72
71043;BME280;58696;52.134;5.500;2023-02-08T03:58:25;104063.31;;;-3.94;88.79
71043;BME280;58696;52.134;5.500;2023-02-08T04:01:13;104064.97;;;-3.91;89.00
71043;BME280;58696;52.134;5.500;2023-02-08T04:03:42;104062.47;;;-3.91;88.75
71043;BME280;58696;52.134;5.500;2023-02-08T04:06:10;104057.44;;;-3.91;89.04
71043;BME280;58696;52.134;5.500;2023-02-08T04:08:37;104059.97;;;-3.91;89.03
71043;BME280;58696;52.134;5.500;2023-02-08T04:11:04;104062.44;;;-3.88;89.34
71043;BME280;58696;52.134;5.500;2023-02-08T04:13:30;104065.75;;;-3.86;89.08
71043;BME280;58696;52.134;5.500;2023-02-08T04:15:57;104065.78;;;-3.85;89.11
71043;BME280;58696;52.134;5.500;2023-02-08T04:18:23;104055.72;;;-3.85;89.33
71043;BME280;58696;52.134;5.500;2023-02-08T04:20:51;104060.72;;;-3.83;89.17
71043;BME280;58696;52.134;5.500;2023-02-08T04:23:18;104059.09;;;-3.86;89.07
71043;BME280;58696;52.134;5.500;2023-02-08T04:25:45;104052.41;;;-3.91;89.20
71043;BME280;58696;52.134;5.500;2023-02-08T04:28:12;104051.56;;;-3.93;89.11
71043;BME280;58696;52.134;5.500;2023-02-08T04:30:41;104051.59;;;-3.95;88.94
71043;BME280;58696;52.134;5.500;2023-02-08T04:33:08;104060.81;;;-4.00;89.11
71043;BME280;58696;52.134;5.500;2023-02-08T04:35:37;104058.31;;;-4.00;88.92
71043;BME280;58696;52.134;5.500;2023-02-08T04:38:03;104056.63;;;-4.03;88.89
71043;BME280;58696;52.134;5.500;2023-02-08T04:40:33;104057.50;;;-4.08;88.68
71043;BME280;58696;52.134;5.500;2023-02-08T04:43:00;104051.66;;;-4.09;88.62
71043;BME280;58696;52.134;5.500;2023-02-08T04:45:28;104048.31;;;-4.09;88.95
71043;BME280;58696;52.134;5.500;2023-02-08T04:48:01;104046.63;;;-4.09;89.04
71043;BME280;58696;52.134;5.500;2023-02-08T04:50:34;104051.66;;;-4.06;88.90
71043;BME280;58696;52.134;5.500;2023-02-08T04:53:01;104041.63;;;-4.10;88.84
71043;BME280;58696;52.134;5.500;2023-02-08T04:55:28;104039.13;;;-4.12;88.88
71043;BME280;58696;52.134;5.500;2023-02-08T04:57:57;104032.44;;;-4.19;88.70
71043;BME280;58696;52.134;5.500;2023-02-08T05:00:25;104033.31;;;-4.23;88.86
71043;BME280;58696;52.134;5.500;2023-02-08T05:02:57;104035.00;;;-4.25;88.41
71043;BME280;58696;52.134;5.500;2023-02-08T05:05:25;104027.44;;;-4.25;88.76
71043;BME280;58696;52.134;5.500;2023-02-08T05:07:51;104034.19;;;-4.29;88.54
71043;BME280;58696;52.134;5.500;2023-02-08T05:10:18;104033.34;;;-4.31;88.58
71043;BME280;58696;52.134;5.500;2023-02-08T05:12:45;104020.81;;;-4.32;88.49
71043;BME280;58696;52.134;5.500;2023-02-08T05:15:12;104019.16;;;-4.35;88.79
71043;BME280;58696;52.134;5.500;2023-02-08T05:17:39;104027.50;;;-4.34;88.92
71043;BME280;58696;52.134;5.500;2023-02-08T05:20:06;104019.97;;;-4.36;88.76
71043;BME280;58696;52.134;5.500;2023-02-08T05:22:33;104027.50;;;-4.37;88.72
71043;BME280;58696;52.134;5.500;2023-02-08T05:25:04;104025.84;;;-4.41;88.91
71043;BME280;58696;52.134;5.500;2023-02-08T05:27:32;104025.88;;;-4.43;89.00
71043;BME280;58696;52.134;5.500;2023-02-08T05:30:01;104022.53;;;-4.40;89.06
71043;BME280;58696;52.134;5.500;2023-02-08T05:32:30;104025.88;;;-4.40;88.86
71043;BME280;58696;52.134;5.500;2023-02-08T05:34:57;104021.66;;;-4.36;89.08
71043;BME280;58696;52.134;5.500;2023-02-08T05:37:27;104023.31;;;-4.37;88.77
71043;BME280;58696;52.134;5.500;2023-02-08T05:39:56;104025.84;;;-4.38;88.88
71043;BME280;58696;52.134;5.500;2023-02-08T05:42:23;104026.69;;;-4.39;88.86
71043;BME280;58696;52.134;5.500;2023-02-08T05:44:50;104024.19;;;-4.42;89.00
71043;BME280;58696;52.134;5.500;2023-02-08T05:47:20;104026.69;;;-4.42;89.04
71043;BME280;58696;52.134;5.500;2023-02-08T05:49:47;104035.91;;;-4.47;88.88
71043;BME280;58696;52.134;5.500;2023-02-08T05:52:14;104030.91;;;-4.47;89.29
71043;BME280;58696;52.134;5.500;2023-02-08T05:54:41;104028.41;;;-4.52;89.08
71043;BME280;58696;52.134;5.500;2023-02-08T05:57:07;104028.41;;;-4.54;89.30
71043;BME280;58696;52.134;5.500;2023-02-08T05:59:34;104019.22;;;-4.50;89.31
71043;BME280;58696;52.134;5.500;2023-02-08T06:02:01;104020.00;;;-4.43;89.35
71043;BME280;58696;52.134;5.500;2023-02-08T06:04:28;104014.97;;;-4.42;89.14
71043;BME280;58696;52.134;5.500;2023-02-08T06:06:57;104016.63;;;-4.41;89.28
71043;BME280;58696;52.134;5.500;2023-02-08T06:09:25;104014.97;;;-4.37;89.49
71043;BME280;58696;52.134;5.500;2023-02-08T06:11:52;104015.78;;;-4.34;89.23
71043;BME280;58696;52.134;5.500;2023-02-08T06:14:22;104019.13;;;-4.32;89.36
71043;BME280;58696;52.134;5.500;2023-02-08T06:16:55;104018.28;;;-4.28;89.30
71043;BME280;58696;52.134;5.500;2023-02-08T06:19:26;104015.78;;;-4.29;89.27
71043;BME280;58696;52.134;5.500;2023-02-08T06:21:52;104024.16;;;-4.33;89.24
71043;BME280;58696;52.134;5.500;2023-02-08T06:24:19;104020.00;;;-4.34;89.24
71043;BME280;58696;52.134;5.500;2023-02-08T06:26:46;104023.31;;;-4.34;89.20
71043;BME280;58696;52.134;5.500;2023-02-08T06:29:12;104027.50;;;-4.33;89.41
71043;BME280;58696;52.134;5.500;2023-02-08T06:31:42;104026.69;;;-4.35;89.16
71043;BME280;58696;52.134;5.500;2023-02-08T06:34:09;104025.00;;;-4.33;89.21
71043;BME280;58696;52.134;5.500;2023-02-08T06:36:36;104029.19;;;-4.33;89.24
71043;BME280;58696;52.134;5.500;2023-02-08T06:39:02;104029.19;;;-4.33;89.08
71043;BME280;58696;52.134;5.500;2023-02-08T06:41:29;104030.03;;;-4.34;88.98
71043;BME280;58696;52.134;5.500;2023-02-08T06:43:58;104022.47;;;-4.36;89.13
71043;BME280;58696;52.134;5.500;2023-02-08T06:46:29;104027.50;;;-4.37;89.01
71043;BME280;58696;52.134;5.500;2023-02-08T06:48:56;104029.19;;;-4.33;89.16
71043;BME280;58696;52.134;5.500;2023-02-08T06:51:25;104028.34;;;-4.34;89.13
71043;BME280;58696;52.134;5.500;2023-02-08T06:53:55;104024.19;;;-4.35;89.04
71043;BME280;58696;52.134;5.500;2023-02-08T06:56:22;104029.19;;;-4.33;89.34
71043;BME280;58696;52.134;5.500;2023-02-08T06:58:48;104021.63;;;-4.32;89.29
71043;BME280;58696;52.134;5.500;2023-02-08T07:01:17;104014.91;;;-4.30;89.32
71043;BME280;58696;52.134;5.500;2023-02-08T07:03:44;104015.78;;;-4.32;88.97
71043;BME280;58696;52.134;5.500;2023-02-08T07:06:12;104011.63;;;-4.35;89.05
71043;BME280;58696;52.134;5.500;2023-02-08T07:08:40;104011.59;;;-4.32;88.98
71043;BME280;58696;52.134;5.500;2023-02-08T07:11:09;104010.78;;;-4.34;88.88
71043;BME280;58696;52.134;5.500;2023-02-08T07:13:37;104007.41;;;-4.28;89.07
71043;BME280;58696;52.134;5.500;2023-02-08T07:16:05;104009.84;;;-4.20;89.12
71043;BME280;58696;52.134;5.500;2023-02-08T07:18:35;104009.00;;;-4.16;88.95
71043;BME280;58696;52.134;5.500;2023-02-08T07:21:02;104015.69;;;-4.15;89.19
71043;BME280;58696;52.134;5.500;2023-02-08T07:23:29;104016.53;;;-4.15;88.90
71043;BME280;58696;52.134;5.500;2023-02-08T07:26:04;104019.88;;;-4.16;88.98
71043;BME280;58696;52.134;5.500;2023-02-08T07:28:35;104024.06;;;-4.12;88.91
71043;BME280;58696;52.134;5.500;2023-02-08T07:31:25;104039.97;;;-4.13;88.49
71043;BME280;58696;52.134;5.500;2023-02-08T07:33:58;104043.31;;;-4.12;88.59
71043;BME280;58696;52.134;5.500;2023-02-08T07:36:24;104036.59;;;-4.10;88.50
71043;BME280;58696;52.134;5.500;2023-02-08T07:38:56;104039.91;;;-4.04;88.37
71043;BME280;58696;52.134;5.500;2023-02-08T07:41:23;104039.00;;;-3.92;88.46
71043;BME280;58696;52.134;5.500;2023-02-08T07:43:49;104023.84;;;-3.81;88.28
71043;BME280;58696;52.134;5.500;2023-02-08T07:46:19;104023.75;;;-3.63;88.42
71043;BME280;58696;52.134;5.500;2023-02-08T07:48:46;104017.75;;;-3.48;88.10
71043;BME280;58696;52.134;5.500;2023-02-08T07:51:18;104015.59;;;-2.96;87.82
71043;BME280;58696;52.134;5.500;2023-02-08T07:53:44;104008.53;;;-2.60;87.11
71043;BME280;58696;52.134;5.500;2023-02-08T07:56:11;104008.59;;;-2.03;86.58
71043;BME280;58696;52.134;5.500;2023-02-08T07:58:40;104011.19;;;-1.04;85.06
71043;BME280;58696;52.134;5.500;2023-02-08T08:01:09;104005.50;;;-0.29;83.26
71043;BME280;58696;52.134;5.500;2023-02-08T08:03:48;104007.78;;;1.19;80.31
71043;BME280;58696;52.134;5.500;2023-02-08T08:06:21;103992.53;;;2.57;75.72
71043;BME280;58696;52.134;5.500;2023-02-08T08:08:49;103993.00;;;2.94;71.54
71043;BME280;58696;52.134;5.500;2023-02-08T08:11:18;103989.47;;;3.21;70.13
71043;BME280;58696;52.134;5.500;2023-02-08T08:13:48;103988.38;;;3.72;68.10
71043;BME280;58696;52.134;5.500;2023-02-08T08:16:15;103993.69;;;3.44;67.14
71043;BME280;58696;52.134;5.500;2023-02-08T08:18:42;103994.63;;;3.41;67.29
71043;BME280;58696;52.134;5.500;2023-02-08T08:21:08;103993.09;;;3.14;66.50
71043;BME280;58696;52.134;5.500;2023-02-08T08:23:40;103991.22;;;3.19;66.93
71043;BME280;58696;52.134;5.500;2023-02-08T08:26:11;103992.47;;;3.31;66.50
71043;BME280;58696;52.134;5.500;2023-02-08T08:28:41;103988.44;;;3.49;66.73
71043;BME280;58696;52.134;5.500;2023-02-08T08:31:16;103985.97;;;4.11;64.81
71043;BME280;58696;52.134;5.500;2023-02-08T08:33:45;103993.13;;;4.44;63.67
71043;BME280;58696;52.134;5.500;2023-02-08T08:36:13;103983.28;;;3.94;63.46
71043;BME280;58696;52.134;5.500;2023-02-08T08:38:40;103989.59;;;3.40;64.85
71043;BME280;58696;52.134;5.500;2023-02-08T08:41:09;103983.38;;;3.49;65.26
71043;BME280;58696;52.134;5.500;2023-02-08T08:43:36;103981.00;;;2.97;67.07
71043;BME280;58696;52.134;5.500;2023-02-08T08:46:05;103976.16;;;3.36;67.02
71043;BME280;58696;52.134;5.500;2023-02-08T08:48:33;103978.28;;;2.78;67.05
71043;BME280;58696;52.134;5.500;2023-02-08T08:51:03;103979.63;;;2.38;68.78
71043;BME280;58696;52.134;5.500;2023-02-08T08:53:29;103975.06;;;1.97;69.02
71043;BME280;58696;52.134;5.500;2023-02-08T08:55:56;103981.19;;;1.63;70.36
71043;BME280;58696;52.134;5.500;2023-02-08T08:58:23;103983.34;;;1.75;71.07
71043;BME280;58696;52.134;5.500;2023-02-08T09:00:51;103991.28;;;2.19;70.15
71043;BME280;58696;52.134;5.500;2023-02-08T09:03:19;103984.56;;;2.17;70.52
71043;BME280;58696;52.134;5.500;2023-02-08T09:05:46;103984.66;;;2.40;70.33
71043;BME280;58696;52.134;5.500;2023-02-08T09:08:13;103978.47;;;2.97;69.26
71043;BME280;58696;52.134;5.500;2023-02-08T09:10:41;103986.00;;;3.46;68.03
71043;BME280;58696;52.134;5.500;2023-02-08T09:13:11;103981.25;;;4.02;66.40
71043;BME280;58696;52.134;5.500;2023-02-08T09:15:45;103973.50;;;4.66;64.81
71043;BME280;58696;52.134;5.500;2023-02-08T09:18:12;103974.03;;;4.93;63.51
71043;BME280;58696;52.134;5.500;2023-02-08T09:20:39;103980.56;;;4.99;63.38
71043;BME280;58696;52.134;5.500;2023-02-08T09:23:07;103974.19;;;5.09;63.61
71043;BME280;58696;52.134;5.500;2023-02-08T09:25:35;103979.41;;;5.44;62.71
71043;BME280;58696;52.134;5.500;2023-02-08T09:28:02;103972.91;;;5.56;62.38
71043;BME280;58696;52.134;5.500;2023-02-08T09:30:30;103982.31;;;5.55;61.54
71043;BME280;58696;52.134;5.500;2023-02-08T09:32:59;103989.13;;;4.98;62.64
71043;BME280;58696;52.134;5.500;2023-02-08T09:35:28;103986.56;;;4.38;63.96
71043;BME280;58696;52.134;5.500;2023-02-08T09:37:55;103988.44;;;3.92;65.00
71043;BME280;58696;52.134;5.500;2023-02-08T09:40:27;103994.97;;;3.78;66.34
71043;BME280;58696;52.134;5.500;2023-02-08T09:43:21;103987.13;;;4.45;66.17
71043;BME280;58696;52.134;5.500;2023-02-08T09:46:04;103989.81;;;5.20;65.88
71043;BME280;58696;52.134;5.500;2023-02-08T09:48:35;103980.78;;;5.87;62.19
71043;BME280;58696;52.134;5.500;2023-02-08T09:54:06;103986.81;;;6.38;60.36
71043;BME280;58696;52.134;5.500;2023-02-08T09:56:39;103978.16;;;6.58;59.21
71043;BME280;58696;52.134;5.500;2023-02-08T09:59:15;103973.75;;;6.44;59.86
71043;BME280;58696;52.134;5.500;2023-02-08T10:01:44;103980.16;;;6.69;59.00
71043;BME280;58696;52.134;5.500;2023-02-08T10:07:10;103977.25;;;6.92;57.44
71043;BME280;58696;52.134;5.500;2023-02-08T10:09:38;103981.38;;;7.10;59.47
71043;BME280;58696;52.134;5.500;2023-02-08T10:15:28;103981.63;;;7.06;55.05
71043;BME280;58696;52.134;5.500;2023-02-08T10:26:21;103987.03;;;6.84;54.94
71043;BME280;58696;52.134;5.500;2023-02-08T10:34:55;103988.19;;;5.38;58.22
71043;BME280;58696;52.134;5.500;2023-02-08T10:37:29;103995.63;;;5.24;58.89
71043;BME280;58696;52.134;5.500;2023-02-08T10:40:07;103997.66;;;5.16;59.55
71043;BME280;58696;52.134;5.500;2023-02-08T10:42:43;104001.41;;;5.09;60.10
71043;BME280;58696;52.134;5.500;2023-02-08T10:45:21;104002.28;;;5.26;60.26
71043;BME280;58696;52.134;5.500;2023-02-08T10:47:55;103991.94;;;5.48;58.46
71043;BME280;58696;52.134;5.500;2023-02-08T10:50:38;103987.06;;;5.44;58.69
71043;BME280;58696;52.134;5.500;2023-02-08T10:53:12;103985.56;;;5.40;58.49
71043;BME280;58696;52.134;5.500;2023-02-08T10:55:42;103990.78;;;5.37;57.67
71043;BME280;58696;52.134;5.500;2023-02-08T10:58:16;103984.03;;;5.36;58.09
71043;BME280;58696;52.134;5.500;2023-02-08T11:00:43;103990.22;;;5.49;57.86
71043;BME280;58696;52.134;5.500;2023-02-08T11:05:43;103971.66;;;5.81;56.96
71043;BME280;58696;52.134;5.500;2023-02-08T11:08:22;103976.84;;;5.80;57.35
71043;BME280;58696;52.134;5.500;2023-02-08T11:16:04;103969.31;;;6.13;56.97
71043;BME280;58696;52.134;5.500;2023-02-08T11:18:37;103969.69;;;6.23;56.54
71043;BME280;58696;52.134;5.500;2023-02-08T11:21:08;103971.91;;;6.46;57.40
71043;BME280;58696;52.134;5.500;2023-02-08T11:23:40;103975.09;;;7.00;56.13
71043;BME280;58696;52.134;5.500;2023-02-08T11:26:42;103976.63;;;7.66;54.18
71043;BME280;58696;52.134;5.500;2023-02-08T11:29:21;103972.56;;;8.38;52.28
71043;BME280;58696;52.134;5.500;2023-02-08T11:37:01;103950.22;;;8.40;50.89
71043;BME280;58696;52.134;5.500;2023-02-08T11:39:38;103951.88;;;8.41;50.97
71043;BME280;58696;52.134;5.500;2023-02-08T11:42:08;103949.84;;;8.32;50.63
71043;BME280;58696;52.134;5.500;2023-02-08T11:44:42;103949.06;;;8.60;50.12
71043;BME280;58696;52.134;5.500;2023-02-08T11:47:15;103937.59;;;8.51;49.55
71043;BME280;58696;52.134;5.500;2023-02-08T11:49:51;103927.66;;;8.02;51.50
71043;BME280;58696;52.134;5.500;2023-02-08T11:52:23;103929.84;;;7.94;51.36
71043;BME280;58696;52.134;5.500;2023-02-08T11:54:53;103936.47;;;8.27;51.54
71043;BME280;58696;52.134;5.500;2023-02-08T11:57:23;103936.19;;;8.17;50.13
71043;BME280;58696;52.134;5.500;2023-02-08T11:59:51;103925.69;;;8.36;50.68
71043;BME280;58696;52.134;5.500;2023-02-08T12:02:39;103923.25;;;8.49;50.66
71043;BME280;58696;52.134;5.500;2023-02-08T12:05:15;103915.44;;;8.50;49.87
71043;BME280;58696;52.134;5.500;2023-02-08T12:07:58;103914.44;;;8.67;50.30
71043;BME280;58696;52.134;5.500;2023-02-08T12:18:44;103888.50;;;8.14;47.66
71043;BME280;58696;52.134;5.500;2023-02-08T12:21:17;103887.13;;;8.09;48.01
71043;BME280;58696;52.134;5.500;2023-02-08T12:23:54;103886.50;;;8.34;47.99
71043;BME280;58696;52.134;5.500;2023-02-08T12:32:29;103854.94;;;8.19;47.02
71043;BME280;58696;52.134;5.500;2023-02-08T12:49:06;103825.56;;;8.10;46.10
71043;BME280;58696;52.134;5.500;2023-02-08T12:54:29;103835.09;;;8.23;46.64
71043;BME280;58696;52.134;5.500;2023-02-08T12:57:00;103829.41;;;8.32;46.56
71043;BME280;58696;52.134;5.500;2023-02-08T12:59:41;103817.59;;;8.15;46.72
71043;BME280;58696;52.134;5.500;2023-02-08T13:02:49;103816.03;;;7.98;47.45
71043;BME280;58696;52.134;5.500;2023-02-08T13:05:27;103813.41;;;7.85;45.99
71043;BME280;58696;52.134;5.500;2023-02-08T13:08:02;103816.75;;;7.72;46.04
71043;BME280;58696;52.134;5.500;2023-02-08T13:10:42;103811.09;;;7.67;46.27
71043;BME280;58696;52.134;5.500;2023-02-08T13:13:27;103807.25;;;7.74;45.72
71043;BME280;58696;52.134;5.500;2023-02-08T13:16:16;103810.06;;;7.55;45.70
71043;BME280;58696;52.134;5.500;2023-02-08T13:21:40;103805.44;;;7.61;45.51
71043;BME280;58696;52.134;5.500;2023-02-08T13:26:56;103801.84;;;7.64;45.61
71043;BME280;58696;52.134;5.500;2023-02-08T13:29:24;103803.03;;;7.58;45.20
71043;BME280;58696;52.134;5.500;2023-02-08T13:32:02;103796.75;;;7.78;44.67
71043;BME280;58696;52.134;5.500;2023-02-08T13:34:44;103790.06;;;7.76;44.27
71043;BME280;58696;52.134;5.500;2023-02-08T13:37:25;103785.88;;;7.75;42.98
71043;BME280;58696;52.134;5.500;2023-02-08T13:40:20;103786.41;;;7.80;43.69
71043;BME280;58696;52.134;5.500;2023-02-08T13:43:02;103778.34;;;7.72;43.60
71043;BME280;58696;52.134;5.500;2023-02-08T13:45:41;103775.78;;;7.72;43.89
71043;BME280;58696;52.134;5.500;2023-02-08T13:48:12;103762.81;;;7.75;43.34
71043;BME280;58696;52.134;5.500;2023-02-08T13:50:50;103766.56;;;7.69;43.80
71043;BME280;58696;52.134;5.500;2023-02-08T13:56:40;103743.06;;;7.91;44.17
71043;BME280;58696;52.134;5.500;2023-02-08T14:04:44;103736.75;;;7.82;40.74
71043;BME280;58696;52.134;5.500;2023-02-08T14:12:27;103729.53;;;7.75;41.56
71043;BME280;58696;52.134;5.500;2023-02-08T14:17:32;103733.19;;;7.85;39.49
71043;BME280;58696;52.134;5.500;2023-02-08T14:20:04;103739.03;;;7.87;39.79
71043;BME280;58696;52.134;5.500;2023-02-08T14:22:39;103726.50;;;7.82;39.54
71043;BME280;58696;52.134;5.500;2023-02-08T14:25:24;103721.28;;;7.98;40.36
71043;BME280;58696;52.134;5.500;2023-02-08T14:33:09;103714.44;;;7.99;39.19
71043;BME280;58696;52.134;5.500;2023-02-08T14:35:41;103709.97;;;7.88;38.78
71043;BME280;58696;52.134;5.500;2023-02-08T14:45:46;103684.28;;;7.61;38.78
71043;BME280;58696;52.134;5.500;2023-02-08T14:48:23;103694.28;;;7.51;39.78
71043;BME280;58696;52.134;5.500;2023-02-08T14:59:05;103669.00;;;7.17;38.74
71043;BME280;58696;52.134;5.500;2023-02-08T15:01:44;103664.53;;;7.06;38.50
71043;BME280;58696;52.134;5.500;2023-02-08T15:04:13;103664.25;;;6.96;39.06
71043;BME280;58696;52.134;5.500;2023-02-08T15:09:42;103650.41;;;6.70;39.84
71043;BME280;58696;52.134;5.500;2023-02-08T15:12:29;103647.63;;;6.59;39.06
71043;BME280;58696;52.134;5.500;2023-02-08T15:14:59;103635.38;;;6.50;39.07
71043;BME280;58696;52.134;5.500;2023-02-08T15:17:50;103635.53;;;6.47;40.04
71043;BME280;58696;52.134;5.500;2023-02-08T15:20:24;103635.97;;;6.39;39.54
71043;BME280;58696;52.134;5.500;2023-02-08T15:23:04;103627.72;;;6.34;40.03
71043;BME280;58696;52.134;5.500;2023-02-08T15:25:35;103623.78;;;6.28;39.50
71043;BME280;58696;52.134;5.500;2023-02-08T15:28:16;103624.28;;;6.19;39.83
71043;BME280;58696;52.134;5.500;2023-02-08T15:30:45;103620.53;;;6.11;40.71
71043;BME280;58696;52.134;5.500;2023-02-08T15:33:18;103615.50;;;6.09;40.57
71043;BME280;58696;52.134;5.500;2023-02-08T15:36:02;103615.00;;;6.02;40.91
71043;BME280;58696;52.134;5.500;2023-02-08T15:38:32;103618.13;;;5.92;40.99
71043;BME280;58696;52.134;5.500;2023-02-08T15:41:11;103617.50;;;5.87;40.46
71043;BME280;58696;52.134;5.500;2023-02-08T15:43:40;103616.69;;;5.86;39.97
71043;BME280;58696;52.134;5.500;2023-02-08T15:46:20;103623.22;;;5.92;39.94
71043;BME280;58696;52.134;5.500;2023-02-08T15:48:48;103618.06;;;5.93;40.32